Weather at Hubbard Regional Hospital Heliport

Public forecast

Using degrees Fahrenheit for public forecast. Weather courtesy of forecast.io.

Closest aviation weather report (METAR) to Hubbard Regional Hospital Heliport

Closest report is Worcester Regional Airport, 14.4 nm (26.7 km) N. Retrieved 2020/09/18 13:54 UTC (15 minutes ago):

KORH 181354Z 04008KT 10SM FEW020 BKN037 OVC055 14/08 A3002 RMK AO2 SLP164 T01440083

Closest aviation forecast (TAF) to Hubbard Regional Hospital Heliport

Closest forecast is Worcester Regional Airport, 14.4 nm (26.7 km) N. Retrieved 2020/09/18 12:28 UTC (2 hours ago):

TAF KORH 181126Z 1812/1912 03010G20KT P6SM BKN015 FM181400 02011G22KT P6SM OVC025 FM181700 02010G20KT P6SM BKN040 FM182000 01009KT P6SM SCT100 FM182300 01007KT P6SM FEW250 FM190800 35010KT P6SM SKC